Time;durP1;ratioP1;P1;durP2;ratioP2;P2;SDS_P1;SDS_P2;PMS_P1;PMS_P2;Temp;Humidity;BMP_temperature;BMP_pressure;BME280_temperature;BME280_humidity;BME280_pressure;Samples;Min_cycle;Max_cycle;Signal;HPM_P1;HPM_P2
2023/05/25 00:00:10;;;;;;;6.82;6.22;;;;;;;7.22;100.00;101804.06;6088252;23;20086;-74
2023/05/25 00:02:39;;;;;;;9.52;6.10;;;;;;;7.56;100.00;101870.41;6081562;23;20033;-70
2023/05/25 00:05:07;;;;;;;12.40;6.10;;;;;;;7.35;100.00;101834.28;6116231;23;20053;-70
2023/05/25 00:07:34;;;;;;;6.60;5.90;;;;;;;7.37;100.00;101835.09;6116734;23;20040;-72
2023/05/25 00:10:01;;;;;;;7.03;6.25;;;;;;;7.71;100.00;101884.88;6096350;23;20165;-70
2023/05/25 00:12:27;;;;;;;8.55;6.68;;;;;;;7.73;100.00;101887.47;6112447;23;20084;-72
2023/05/25 00:14:54;;;;;;;7.50;6.90;;;;;;;7.71;100.00;101889.25;6090777;23;20033;-70
2023/05/25 00:17:20;;;;;;;6.30;5.70;;;;;;;7.05;100.00;101794.84;6117222;23;20048;-71
2023/05/25 00:19:47;;;;;;;7.22;6.53;;;;;;;7.65;100.00;101895.47;6090700;23;20097;-71
2023/05/25 00:22:14;;;;;;;11.32;7.53;;;;;;;7.63;100.00;101889.41;6088938;23;20428;-71
2023/05/25 00:24:40;;;;;;;6.53;5.93;;;;;;;7.59;100.00;101883.38;6118846;23;20064;-70
2023/05/25 00:27:07;;;;;;;8.65;6.30;;;;;;;6.82;100.00;101758.78;6109823;23;20098;-71
2023/05/25 00:29:34;;;;;;;6.25;5.53;;;;;;;7.54;100.00;101882.63;6118355;23;20184;-71
2023/05/25 00:32:01;;;;;;;15.52;7.03;;;;;;;7.44;100.00;101888.94;6084392;23;20023;-70
2023/05/25 00:34:28;;;;;;;20.40;19.00;;;;;;;7.52;100.00;101881.81;6070538;23;20351;-71
2023/05/25 00:36:54;;;;;;;6.00;5.50;;;;;;;7.47;100.00;101881.03;6047136;23;20021;-69
2023/05/25 00:39:21;;;;;;;5.78;5.28;;;;;;;7.34;100.00;101867.38;6093444;23;20084;-72
2023/05/25 00:41:48;;;;;;;5.65;5.20;;;;;;;7.26;100.00;101857.97;6113369;23;20069;-70
2023/05/25 00:44:15;;;;;;;8.02;6.30;;;;;;;7.35;100.00;101871.69;6114709;23;20026;-71
2023/05/25 00:46:50;;;;;;;5.65;5.25;;;;;;;7.37;100.00;101876.88;6063442;23;20129;-70
2023/05/25 00:49:23;;;;;;;6.32;5.82;;;;;;;7.32;100.00;101874.38;6111928;23;20017;-70
2023/05/25 00:51:51;;;;;;;7.03;6.45;;;;;;;6.86;100.00;101802.19;6111252;23;20025;-71
2023/05/25 00:54:18;;;;;;;6.47;5.45;;;;;;;7.32;100.00;101881.34;6088407;23;20030;-70
2023/05/25 00:57:01;;;;;;;6.10;5.55;;;;;;;7.29;100.00;101878.78;6116012;23;20048;-70
2023/05/25 00:59:34;;;;;;;8.95;6.05;;;;;;;7.12;100.00;101853.03;6083756;23;20040;-71
2023/05/25 01:02:07;;;;;;;5.45;5.05;;;;;;;7.23;100.00;101890.22;6110916;23;20479;-70
2023/05/25 01:04:37;;;;;;;5.30;4.90;;;;;;;7.20;100.00;101898.13;6113249;23;20041;-70
2023/05/25 01:07:07;;;;;;;12.48;5.95;;;;;;;7.16;100.00;101883.41;6087894;23;20029;-71
2023/05/25 01:09:37;;;;;;;5.82;5.43;;;;;;;7.13;100.00;101879.06;6118291;23;20491;-70
2023/05/25 01:12:08;;;;;;;6.35;5.95;;;;;;;7.11;100.00;101891.28;6086993;23;20033;-73
2023/05/25 01:14:36;;;;;;;9.82;5.15;;;;;;;7.09;100.00;101892.22;6117450;23;20037;-70
2023/05/25 01:17:03;;;;;;;8.77;5.80;;;;;;;7.08;100.00;101888.75;6084669;23;20375;-70
2023/05/25 01:19:32;;;;;;;6.35;5.82;;;;;;;7.12;100.00;101885.19;6117297;23;20028;-70
2023/05/25 01:22:08;;;;;;;6.53;5.38;;;;;;;7.03;100.00;101890.56;6093675;23;20028;-71
2023/05/25 01:24:50;;;;;;;6.05;5.55;;;;;;;6.40;100.00;101792.56;6083569;23;20107;-70
2023/05/25 01:27:22;;;;;;;6.50;5.97;;;;;;;6.93;100.00;101886.41;6062194;23;20029;-69
2023/05/25 01:29:50;;;;;;;5.70;5.20;;;;;;;6.92;100.00;101890.78;6109456;23;20027;-73
2023/05/25 01:32:18;;;;;;;8.27;5.95;;;;;;;6.88;100.00;101896.94;6095873;23;20024;-72
2023/05/25 01:34:47;;;;;;;6.53;5.90;;;;;;;6.78;100.00;101888.41;6111165;23;20024;-71
2023/05/25 01:37:16;;;;;;;6.38;5.97;;;;;;;6.84;100.00;101897.03;6097454;23;20025;-70
2023/05/25 01:39:45;;;;;;;5.90;5.40;;;;;;;6.75;100.00;101883.22;6112560;23;20068;-71
2023/05/25 01:42:12;;;;;;;8.20;5.45;;;;;;;6.22;100.00;101813.75;6116820;23;20028;-72
2023/05/25 01:44:38;;;;;;;9.88;6.10;;;;;;;6.77;100.00;101901.47;6112196;23;20033;-70
2023/05/25 01:47:16;;;;;;;5.47;4.97;;;;;;;6.75;100.00;101905.88;6114455;23;20081;-72
2023/05/25 01:49:54;;;;;;;9.20;5.43;;;;;;;6.65;100.00;101907.75;6112837;23;20022;-73
2023/05/25 01:52:25;;;;;;;15.07;5.18;;;;;;;5.85;100.00;101777.78;6118163;23;22048;-71
2023/05/25 01:55:21;;;;;;;17.80;5.72;;;;;;;6.61;100.00;101903.47;6117330;23;20063;-72
2023/05/25 01:57:56;;;;;;;7.47;6.30;;;;;;;6.60;100.00;101914.81;6103818;23;20095;-70
2023/05/25 02:00:30;;;;;;;6.90;5.50;;;;;;;6.58;100.00;101914.81;6093782;23;20009;-72
2023/05/25 02:02:57;;;;;;;6.53;5.93;;;;;;;6.49;100.00;101891.50;6130038;23;20029;-71
2023/05/25 02:05:25;;;;;;;6.90;6.30;;;;;;;6.44;100.00;101897.69;6096311;23;20068;-73
2023/05/25 02:07:52;;;;;;;14.10;6.63;;;;;;;6.50;100.00;101906.28;6096403;23;20052;-73
2023/05/25 02:10:19;;;;;;;6.70;6.00;;;;;;;5.86;100.00;101816.00;6113495;23;20052;-70
2023/05/25 02:12:45;;;;;;;6.93;5.75;;;;;;;5.59;100.00;101774.69;6086084;23;20105;-70
2023/05/25 02:15:14;;;;;;;5.07;4.78;;;;;;;5.12;100.00;101685.09;6112153;23;20099;-70
2023/05/25 02:17:42;;;;;;;9.02;5.85;;;;;;;6.41;100.00;101903.78;6118219;23;20085;-69
2023/05/25 02:20:10;;;;;;;6.40;5.88;;;;;;;6.39;100.00;101903.84;6116320;23;20092;-70
2023/05/25 02:22:36;;;;;;;6.60;5.95;;;;;;;5.83;100.00;101816.88;6091910;23;20058;-70
2023/05/25 02:25:04;;;;;;;6.65;5.13;;;;;;;6.38;100.00;101930.78;6092187;23;20033;-70
2023/05/25 02:27:32;;;;;;;7.90;6.13;;;;;;;6.35;100.00;101899.56;6120342;23;20085;-70
2023/05/25 02:29:58;;;;;;;7.57;6.13;;;;;;;6.26;100.00;101886.66;6117771;23;20086;-70
2023/05/25 02:32:25;;;;;;;6.82;5.45;;;;;;;6.01;100.00;101844.44;6121505;23;20037;-70
2023/05/25 02:34:52;;;;;;;9.48;4.82;;;;;;;6.35;100.00;101907.38;6089696;23;20073;-70
2023/05/25 02:37:18;;;;;;;7.68;6.07;;;;;;;5.32;100.00;101747.28;6118759;23;20017;-71
2023/05/25 02:39:45;;;;;;;5.85;5.45;;;;;;;6.25;100.00;101913.59;6118569;23;20045;-71
2023/05/25 02:42:11;;;;;;;5.72;5.25;;;;;;;6.14;100.00;101899.88;6116562;23;20048;-70
2023/05/25 02:44:37;;;;;;;5.88;5.38;;;;;;;5.22;100.00;101760.44;6086046;23;20045;-71
2023/05/25 02:47:05;;;;;;;6.35;5.78;;;;;;;5.90;100.00;101882.81;6116439;23;20072;-71
2023/05/25 02:49:33;;;;;;;6.65;6.10;;;;;;;5.20;100.00;101789.94;6059794;23;20034;-71
2023/05/25 02:51:59;;;;;;;6.47;5.97;;;;;;;6.05;100.00;101921.69;6113693;23;20451;-70
2023/05/25 02:54:26;;;;;;;5.35;4.88;;;;;;;6.00;100.00;101920.91;6087324;23;20034;-72
2023/05/25 02:56:52;;;;;;;6.18;5.18;;;;;;;6.02;100.00;101920.91;6086361;23;20239;-71
2023/05/25 02:59:19;;;;;;;10.63;5.53;;;;;;;5.60;100.00;101859.72;6127488;23;20346;-70
2023/05/25 03:01:45;;;;;;;6.90;5.35;;;;;;;5.97;100.00;101929.63;6060667;23;20124;-71
2023/05/25 03:04:12;;;;;;;5.85;5.30;;;;;;;5.98;100.00;101931.34;6118111;23;20616;-72
2023/05/25 03:06:38;;;;;;;6.88;5.63;;;;;;;5.59;100.00;101876.25;6099234;23;20017;-71
2023/05/25 03:09:06;;;;;;;6.38;5.88;;;;;;;5.85;100.00;101915.84;6113538;23;20175;-71
2023/05/25 03:11:32;;;;;;;9.13;6.57;;;;;;;6.00;100.00;101931.31;6090345;23;20330;-70
2023/05/25 03:14:00;;;;;;;6.63;6.05;;;;;;;6.08;100.00;101952.09;6113672;23;20032;-70
2023/05/25 03:16:26;;;;;;;6.13;5.57;;;;;;;6.06;100.00;101951.25;6122020;23;20326;-71
2023/05/25 03:18:53;;;;;;;9.05;6.55;;;;;;;5.80;100.00;101916.78;6116123;23;20078;-72
2023/05/25 03:21:21;;;;;;;6.57;5.97;;;;;;;6.02;100.00;101955.63;6090829;23;20662;-70
2023/05/25 03:23:47;;;;;;;5.03;4.72;;;;;;;5.95;100.00;101946.16;6116644;23;20027;-69
2023/05/25 03:26:14;;;;;;;6.10;5.55;;;;;;;5.91;100.00;101953.13;6112754;23;20034;-70
2023/05/25 03:28:41;;;;;;;5.72;5.15;;;;;;;5.40;100.00;101870.38;6116448;23;20118;-70
2023/05/25 03:31:07;;;;;;;5.60;5.10;;;;;;;5.95;100.00;101967.88;6114891;23;20040;-69
2023/05/25 03:33:34;;;;;;;6.35;5.82;;;;;;;5.93;100.00;101961.78;6087657;23;20586;-70
2023/05/25 03:36:06;;;;;;;6.50;5.93;;;;;;;5.95;100.00;101962.66;6115069;23;20071;-69
2023/05/25 03:38:32;;;;;;;6.60;5.50;;;;;;;5.92;100.00;101954.84;6114242;23;20020;-70
2023/05/25 03:40:59;;;;;;;10.00;5.88;;;;;;;5.62;100.00;101892.72;6088991;23;20037;-71
2023/05/25 03:43:25;;;;;;;8.23;6.10;;;;;;;6.01;100.00;101956.50;6090365;23;20048;-69
2023/05/25 03:45:52;;;;;;;10.98;6.10;;;;;;;6.16;100.00;101971.09;6115875;23;20033;-70
2023/05/25 03:48:18;;;;;;;5.38;4.95;;;;;;;5.79;100.00;101907.25;6120609;23;20018;-75
2023/05/25 03:50:45;;;;;;;9.70;6.18;;;;;;;5.76;100.00;101899.47;6066962;23;20037;-74
2023/05/25 03:53:11;;;;;;;7.82;7.13;;;;;;;6.32;100.00;101974.34;6118643;23;20056;-72
2023/05/25 03:55:37;;;;;;;7.38;6.03;;;;;;;6.34;100.00;101983.84;6114706;23;20009;-72
2023/05/25 03:58:04;;;;;;;6.38;5.88;;;;;;;5.91;100.00;101903.63;6098608;23;20048;-73
2023/05/25 04:00:30;;;;;;;5.57;5.18;;;;;;;6.29;100.00;101951.75;6107464;23;20005;-72
2023/05/25 04:02:57;;;;;;;5.53;5.13;;;;;;;5.49;100.00;101816.47;6060759;23;20779;-73
2023/05/25 04:05:25;;;;;;;13.55;6.82;;;;;;;6.65;100.00;101996.44;6108896;23;20569;-73
2023/05/25 04:07:52;;;;;;;8.18;5.88;;;;;;;6.61;100.00;101950.44;6096913;23;20041;-73
2023/05/25 04:10:19;;;;;;;9.30;6.13;;;;;;;7.37;100.00;101999.63;6112318;23;20564;-73
2023/05/25 04:12:45;;;;;;;7.95;6.10;;;;;;;7.51;100.00;101953.22;6089419;23;20059;-75
2023/05/25 04:15:13;;;;;;;14.38;5.85;;;;;;;8.28;100.00;102003.94;6113804;23;20029;-73
2023/05/25 04:17:39;;;;;;;6.85;6.25;;;;;;;8.67;100.00;102006.59;6088081;23;20027;-74
2023/05/25 04:20:09;;;;;;;5.95;5.45;;;;;;;8.87;100.00;101972.06;6085235;23;20026;-74
2023/05/25 04:22:39;;;;;;;5.40;5.10;;;;;;;9.57;100.00;102006.06;6085370;23;20049;-74
2023/05/25 04:25:06;;;;;;;6.35;5.72;;;;;;;9.82;100.00;101968.69;6120929;23;20045;-73
2023/05/25 04:27:33;;;;;;;6.07;5.38;;;;;;;10.01;100.00;101945.41;6115430;23;20045;-74
2023/05/25 04:29:59;;;;;;;6.63;6.13;;;;;;;10.90;100.00;102000.41;6090974;23;20123;-73
2023/05/25 04:32:28;;;;;;;6.45;5.90;;;;;;;10.53;100.00;101893.13;6091374;23;20036;-73
2023/05/25 04:34:55;;;;;;;6.80;6.25;;;;;;;11.33;100.00;101979.72;6094963;23;20711;-74
2023/05/25 04:37:26;;;;;;;7.22;6.63;;;;;;;11.38;100.00;101983.03;6088123;23;20404;-73
2023/05/25 04:39:52;;;;;;;7.72;5.68;;;;;;;10.58;100.00;101883.31;6115142;23;20043;-73
2023/05/25 04:42:22;;;;;;;8.20;7.00;;;;;;;10.75;97.36;101943.16;6085548;23;20041;-73
2023/05/25 04:44:54;;;;;;;6.57;5.82;;;;;;;11.25;95.67;101893.28;6112478;23;20029;-74
2023/05/25 04:47:21;;;;;;;7.18;6.47;;;;;;;11.46;90.70;101896.88;6096187;23;20092;-73
2023/05/25 04:49:48;;;;;;;9.05;7.32;;;;;;;11.36;89.01;101914.75;6089805;23;20032;-73
2023/05/25 04:52:14;;;;;;;11.05;6.90;;;;;;;11.67;87.79;101918.91;6101611;23;20161;-73
2023/05/25 04:54:42;;;;;;;6.50;6.10;;;;;;;11.30;85.83;101865.03;6112972;23;20033;-74
2023/05/25 04:57:08;;;;;;;6.78;6.22;;;;;;;11.87;86.19;101889.22;6120844;23;20045;-73
2023/05/25 04:59:35;;;;;;;8.25;6.88;;;;;;;12.42;84.19;101915.16;6066214;23;20077;-73
2023/05/25 05:02:01;;;;;;;9.77;6.80;;;;;;;12.06;82.43;101884.13;6088838;23;20303;-73
2023/05/25 05:04:28;;;;;;;9.23;6.95;;;;;;;11.14;83.42;101835.84;6083242;23;20075;-73
2023/05/25 05:06:54;;;;;;;7.85;6.07;;;;;;;11.53;85.73;101887.88;6112085;23;20082;-74
2023/05/25 05:09:24;;;;;;;11.48;7.47;;;;;;;12.07;84.97;101925.31;6083368;23;20594;-74
2023/05/25 05:11:50;;;;;;;8.57;7.55;;;;;;;12.10;84.01;101795.41;6114723;23;20436;-75
2023/05/25 05:14:17;;;;;;;11.80;7.00;;;;;;;13.34;81.41;101879.66;6112187;23;21457;-75
2023/05/25 05:16:43;;;;;;;8.98;6.75;;;;;;;12.29;79.05;101775.28;6084796;23;20619;-76
2023/05/25 05:19:10;;;;;;;7.82;6.93;;;;;;;11.75;80.39;101738.00;6112590;23;20672;-75
2023/05/25 05:21:36;;;;;;;7.95;7.22;;;;;;;12.35;80.85;101790.84;6110557;23;20012;-75
2023/05/25 05:24:02;;;;;;;8.48;6.50;;;;;;;12.94;79.46;101794.41;6121225;23;20053;-74
2023/05/25 05:26:29;;;;;;;12.98;7.65;;;;;;;14.31;77.85;101893.63;6093663;23;20677;-74
2023/05/25 05:28:59;;;;;;;9.00;6.88;;;;;;;15.04;75.25;101855.66;6088972;23;20021;-74
2023/05/25 05:31:26;;;;;;;9.18;6.70;;;;;;;15.45;72.78;101812.91;6122819;23;20739;-75
2023/05/25 05:33:53;;;;;;;9.38;6.78;;;;;;;16.31;70.63;101830.09;6119298;23;20053;-74
2023/05/25 05:36:19;;;;;;;11.57;7.38;;;;;;;15.77;67.64;101660.25;6126456;23;20040;-74
2023/05/25 05:38:46;;;;;;;14.98;8.45;;;;;;;16.08;65.85;101677.00;6112604;23;20033;-74
2023/05/25 05:41:13;;;;;;;10.52;8.07;;;;;;;15.40;66.55;101614.75;6105954;23;20484;-74
2023/05/25 05:43:44;;;;;;;9.30;7.88;;;;;;;15.68;66.13;101626.38;6092664;23;20033;-75
2023/05/25 05:46:11;;;;;;;12.15;7.88;;;;;;;16.46;66.89;101748.03;6116475;23;20089;-76
2023/05/25 05:48:37;;;;;;;8.77;8.05;;;;;;;15.70;66.11;101627.16;6117473;23;20047;-74
2023/05/25 05:51:04;;;;;;;11.15;8.80;;;;;;;15.73;65.81;101670.19;6090712;23;20139;-74
2023/05/25 05:53:31;;;;;;;12.20;7.97;;;;;;;16.43;65.08;101679.31;6112945;23;20088;-75
2023/05/25 05:55:58;;;;;;;18.25;9.27;;;;;;;15.99;64.81;101608.69;6089841;23;20035;-74
2023/05/25 05:58:25;;;;;;;8.85;8.00;;;;;;;16.53;64.80;101661.88;6089047;23;20053;-74
2023/05/25 06:00:53;;;;;;;10.75;8.65;;;;;;;15.76;66.33;101687.69;6116056;23;20088;-75
2023/05/25 06:03:20;;;;;;;10.07;8.68;;;;;;;15.42;66.29;101596.16;6099463;23;20056;-75
2023/05/25 06:05:46;;;;;;;13.80;8.30;;;;;;;15.83;65.43;101579.66;6113597;23;20076;-75
2023/05/25 06:08:13;;;;;;;19.35;8.25;;;;;;;16.37;65.71;101667.28;6091884;23;20025;-75
2023/05/25 06:10:42;;;;;;;9.07;7.80;;;;;;;16.82;65.11;101701.66;6119358;23;20258;-75
2023/05/25 06:13:08;;;;;;;9.93;8.20;;;;;;;16.87;63.90;101638.59;6070036;23;20026;-74
2023/05/25 06:15:35;;;;;;;9.63;7.85;;;;;;;15.92;64.56;101553.47;6116729;23;20025;-75
2023/05/25 06:18:02;;;;;;;16.25;8.57;;;;;;;16.56;64.95;101682.91;6114376;23;20033;-75
2023/05/25 06:20:29;;;;;;;11.15;8.18;;;;;;;15.50;67.74;101713.81;6085484;23;20030;-75
2023/05/25 06:22:55;;;;;;;9.38;8.18;;;;;;;14.78;69.28;101694.00;6096758;23;20155;-74
2023/05/25 06:25:22;;;;;;;12.18;8.65;;;;;;;14.25;72.33;101761.03;6086850;23;20021;-74
2023/05/25 06:27:49;;;;;;;10.15;8.40;;;;;;;14.29;74.19;101818.03;6114465;23;20040;-75
2023/05/25 06:30:15;;;;;;;9.27;8.10;;;;;;;14.06;75.23;101798.91;6088164;23;20039;-74
2023/05/25 06:32:42;;;;;;;18.70;8.55;;;;;;;14.08;77.14;101843.72;6113038;23;20021;-74
2023/05/25 06:35:11;;;;;;;11.30;8.18;;;;;;;14.54;77.81;101907.47;6113322;23;20033;-74
2023/05/25 06:37:38;;;;;;;18.33;8.65;;;;;;;13.68;75.92;101785.78;6095475;23;20033;-75
2023/05/25 06:40:08;;;;;;;8.95;8.15;;;;;;;14.26;76.18;101895.63;6110167;23;20053;-75
2023/05/25 06:42:34;;;;;;;12.75;8.60;;;;;;;14.35;75.98;101897.81;6093888;23;20448;-75
2023/05/25 06:45:01;;;;;;;12.02;9.20;;;;;;;13.88;76.29;101848.16;6109840;23;20439;-75
2023/05/25 06:47:27;;;;;;;12.40;9.23;;;;;;;14.23;75.40;101872.00;6124105;23;20059;-75
2023/05/25 06:49:57;;;;;;;10.80;8.60;;;;;;;13.63;75.58;101768.47;6085009;23;20124;-74
2023/05/25 06:52:23;;;;;;;12.35;8.93;;;;;;;14.19;76.50;101888.06;6089284;23;20392;-75
2023/05/25 06:54:50;;;;;;;9.07;8.05;;;;;;;14.23;76.61;101887.84;6112529;23;20029;-75
2023/05/25 06:57:16;;;;;;;12.43;8.65;;;;;;;13.76;77.22;101823.19;6089006;23;20060;-72
2023/05/25 06:59:43;;;;;;;9.75;7.55;;;;;;;13.83;77.36;101852.81;6104590;23;20025;-74
2023/05/25 07:02:09;;;;;;;15.48;8.60;;;;;;;13.75;76.58;101805.69;6061600;23;20098;-75
2023/05/25 07:04:36;;;;;;;18.48;8.43;;;;;;;14.58;75.70;101918.78;6116953;23;20089;-74
2023/05/25 07:07:03;;;;;;;9.90;8.20;;;;;;;14.68;76.35;101922.66;6116311;23;20025;-74
2023/05/25 07:09:29;;;;;;;13.18;9.00;;;;;;;14.14;75.43;101864.53;6094111;23;20104;-74
2023/05/25 07:11:56;;;;;;;9.23;8.07;;;;;;;13.66;77.25;101837.75;6112767;23;20032;-74
2023/05/25 07:14:22;;;;;;;9.02;7.70;;;;;;;13.79;75.92;101827.50;6115926;23;20042;-74
2023/05/25 07:16:49;;;;;;;8.80;7.93;;;;;;;14.00;76.04;101843.22;6114529;23;20058;-74
2023/05/25 07:19:15;;;;;;;9.35;8.52;;;;;;;14.41;74.11;101886.06;6088378;23;20022;-74
2023/05/25 07:21:42;;;;;;;10.38;8.10;;;;;;;14.51;74.48;101894.41;6117568;23;20047;-74
2023/05/25 07:24:08;;;;;;;18.15;7.90;;;;;;;13.97;74.14;101791.41;6099253;23;20022;-74
2023/05/25 07:26:35;;;;;;;8.75;7.95;;;;;;;14.73;74.36;101907.44;6112281;23;20025;-74
2023/05/25 07:29:02;;;;;;;12.60;7.38;;;;;;;14.32;73.39;101829.28;6113113;23;20036;-73
2023/05/25 07:31:28;;;;;;;13.25;7.88;;;;;;;14.97;72.73;101892.09;6109747;23;20479;-74
2023/05/25 07:33:55;;;;;;;9.63;7.65;;;;;;;14.49;72.68;101820.53;6094997;23;20448;-74
2023/05/25 07:36:23;;;;;;;8.45;7.63;;;;;;;14.83;72.71;101853.16;6110148;23;20039;-74
2023/05/25 07:38:50;;;;;;;8.90;7.57;;;;;;;15.07;72.88;101890.69;6088963;23;20621;-75
2023/05/25 07:41:17;;;;;;;13.05;8.32;;;;;;;14.57;72.44;101825.44;6112510;23;20029;-75
2023/05/25 07:43:43;;;;;;;15.35;8.60;;;;;;;14.51;71.27;101791.38;6090298;23;20038;-75
2023/05/25 07:46:10;;;;;;;20.50;8.35;;;;;;;14.49;70.58;101753.63;6111099;23;20025;-75
2023/05/25 07:48:36;;;;;;;11.20;7.68;;;;;;;15.41;70.76;101875.69;6094749;23;20468;-75
2023/05/25 07:51:03;;;;;;;17.38;8.25;;;;;;;15.75;69.82;101871.25;6112806;23;20016;-75
2023/05/25 07:53:29;;;;;;;16.13;8.27;;;;;;;15.50;69.42;101845.25;6115951;23;20122;-74
2023/05/25 07:55:56;;;;;;;13.40;7.38;;;;;;;15.11;69.50;101818.25;6089905;23;20030;-74
2023/05/25 07:58:22;;;;;;;8.35;7.53;;;;;;;15.59;69.87;101867.69;6117134;23;20103;-74
2023/05/25 08:00:49;;;;;;;12.10;8.40;;;;;;;16.07;69.27;101882.69;6114658;23;20103;-73
2023/05/25 08:03:16;;;;;;;11.10;8.75;;;;;;;14.73;67.22;101596.50;6085725;23;20548;-74
2023/05/25 08:05:43;;;;;;;12.30;8.27;;;;;;;15.87;66.09;101777.91;6087066;23;20083;-74
2023/05/25 08:08:10;;;;;;;11.07;7.88;;;;;;;15.73;66.71;101757.50;6116389;23;20493;-74
2023/05/25 08:10:36;;;;;;;13.93;8.98;;;;;;;15.94;66.74;101794.31;6114092;23;20021;-73
2023/05/25 08:13:03;;;;;;;13.20;8.45;;;;;;;15.72;67.59;101800.81;6117436;23;20025;-74
2023/05/25 08:15:30;;;;;;;12.68;8.68;;;;;;;16.13;67.64;101834.66;6116032;23;20029;-74
2023/05/25 08:17:56;;;;;;;9.35;8.52;;;;;;;16.18;65.96;101796.47;6095866;23;20026;-74
2023/05/25 08:20:26;;;;;;;12.05;8.60;;;;;;;15.35;65.91;101633.56;6119479;23;20015;-73
2023/05/25 08:22:53;;;;;;;13.07;8.75;;;;;;;15.71;65.31;101697.66;6091385;23;20104;-74
2023/05/25 08:25:20;;;;;;;14.70;8.50;;;;;;;15.91;65.54;101744.16;6113870;23;20013;-73
2023/05/25 08:27:46;;;;;;;9.80;8.10;;;;;;;15.14;66.03;101696.44;6081892;23;20032;-74
2023/05/25 08:30:13;;;;;;;10.57;7.38;;;;;;;15.23;66.65;101721.50;6117054;23;20025;-74
2023/05/25 08:32:40;;;;;;;8.13;7.32;;;;;;;15.68;65.47;101735.75;6085151;23;20042;-74
2023/05/25 08:35:06;;;;;;;12.05;7.22;;;;;;;15.19;64.43;101627.41;6122124;23;20025;-74
2023/05/25 08:37:34;;;;;;;9.50;7.47;;;;;;;15.65;65.31;101737.69;6115938;23;20648;-74
2023/05/25 08:40:01;;;;;;;17.67;7.68;;;;;;;15.13;62.80;101581.03;6082870;23;20499;-74
2023/05/25 08:42:28;;;;;;;7.43;6.82;;;;;;;15.83;64.86;101781.66;6105070;23;20429;-74
2023/05/25 08:44:55;;;;;;;8.07;7.25;;;;;;;15.59;64.31;101687.78;6117794;23;20547;-74
2023/05/25 08:47:22;;;;;;;12.50;7.90;;;;;;;16.62;63.42;101766.47;6112878;23;20058;-73
2023/05/25 08:49:49;;;;;;;10.93;7.88;;;;;;;16.82;63.47;101779.41;6119479;23;20053;-73
2023/05/25 08:52:21;;;;;;;8.13;7.32;;;;;;;16.04;63.40;101654.31;6083767;23;20026;-73
2023/05/25 08:54:50;;;;;;;11.02;7.68;;;;;;;16.89;61.96;101733.00;6113578;23;20032;-74
2023/05/25 08:57:24;;;;;;;11.43;8.50;;;;;;;16.48;61.84;101686.03;6118382;23;20009;-74
2023/05/25 09:00:01;;;;;;;10.98;8.02;;;;;;;16.38;62.09;101681.38;6106446;23;20029;-74
2023/05/25 09:03:00;;;;;;;11.13;7.72;;;;;;;16.49;62.43;101731.91;6095607;23;20032;-73
2023/05/25 09:05:27;;;;;;;8.30;7.53;;;;;;;16.75;61.60;101714.41;6064815;23;20012;-74
2023/05/25 09:07:55;;;;;;;8.60;7.72;;;;;;;16.08;60.40;101548.09;6098732;23;20021;-74
2023/05/25 09:10:23;;;;;;;8.85;7.85;;;;;;;16.79;61.08;101696.53;6111136;23;20599;-74
2023/05/25 09:12:50;;;;;;;12.50;8.88;;;;;;;16.30;61.01;101661.50;6094798;23;20029;-73
2023/05/25 09:15:17;;;;;;;8.85;7.97;;;;;;;16.27;63.22;101759.69;6122591;23;20070;-74
2023/05/25 09:17:44;;;;;;;9.98;8.98;;;;;;;16.06;62.94;101771.56;6112235;23;20044;-73
2023/05/25 09:20:12;;;;;;;9.10;8.13;;;;;;;16.27;62.14;101730.56;6122113;23;20050;-74
2023/05/25 09:22:40;;;;;;;10.00;7.82;;;;;;;15.83;62.29;101656.41;6110445;23;20025;-74
2023/05/25 09:25:08;;;;;;;9.45;7.90;;;;;;;16.25;62.98;101784.56;6119646;23;20094;-74
2023/05/25 09:27:38;;;;;;;8.25;6.93;;;;;;;16.39;61.45;101751.97;6089653;23;20393;-74
2023/05/25 09:30:06;;;;;;;9.35;7.60;;;;;;;16.19;61.10;101695.72;6091212;23;20030;-74
2023/05/25 09:32:32;;;;;;;9.30;7.55;;;;;;;15.00;62.61;101640.81;6115097;23;20050;-75
2023/05/25 09:35:09;;;;;;;11.43;7.40;;;;;;;15.86;62.25;101762.97;6092698;23;20089;-74
2023/05/25 09:37:36;;;;;;;15.32;8.13;;;;;;;15.93;63.76;101795.22;6118174;23;20111;-73
2023/05/25 09:40:04;;;;;;;9.50;7.63;;;;;;;15.66;62.84;101708.50;6091372;23;20105;-74
2023/05/25 09:42:32;;;;;;;7.63;7.03;;;;;;;15.90;62.13;101735.38;6123974;23;20033;-74
2023/05/25 09:44:59;;;;;;;9.98;6.68;;;;;;;16.31;60.04;101670.31;6112457;23;20073;-76
2023/05/25 09:47:26;;;;;;;6.65;6.13;;;;;;;16.00;60.62;101653.63;6118223;23;20037;-74
2023/05/25 09:49:55;;;;;;;9.38;7.10;;;;;;;16.41;60.01;101689.16;6086674;23;20033;-72
2023/05/25 09:52:22;;;;;;;8.07;6.97;;;;;;;16.82;59.04;101720.22;6116445;23;20048;-73
2023/05/25 09:54:50;;;;;;;7.50;6.90;;;;;;;16.96;59.39;101738.78;6064893;23;20029;-73
2023/05/25 09:57:18;;;;;;;10.45;7.55;;;;;;;17.02;59.60;101745.50;6088371;23;20017;-74
2023/05/25 09:59:45;;;;;;;8.25;7.40;;;;;;;16.97;59.16;101715.78;6086909;23;20026;-74
2023/05/25 10:02:13;;;;;;;7.75;6.97;;;;;;;16.66;59.16;101699.94;6114386;23;20040;-75
2023/05/25 10:04:40;;;;;;;11.68;7.43;;;;;;;16.22;60.13;101723.84;6118355;23;20041;-76
2023/05/25 10:07:07;;;;;;;7.80;7.20;;;;;;;16.61;63.14;101905.25;6118820;23;20602;-73
2023/05/25 10:09:42;;;;;;;8.93;7.93;;;;;;;16.69;59.94;101766.00;6094671;23;20030;-71
2023/05/25 10:12:10;;;;;;;7.75;7.05;;;;;;;16.28;60.52;101763.22;6106250;23;20083;-72
2023/05/25 10:14:37;;;;;;;6.50;5.97;;;;;;;16.43;58.82;101706.66;6119243;23;20018;-71
2023/05/25 10:17:05;;;;;;;7.90;6.93;;;;;;;16.41;60.26;101737.69;6088329;23;20028;-71
2023/05/25 10:19:41;;;;;;;6.90;6.22;;;;;;;16.50;59.15;101696.53;6120196;23;20083;-72
2023/05/25 10:22:15;;;;;;;6.75;6.05;;;;;;;17.11;58.85;101745.75;6112922;23;20076;-71
2023/05/25 10:25:02;;;;;;;7.13;6.43;;;;;;;17.22;58.13;101718.56;6096548;23;20023;-71
2023/05/25 10:27:38;;;;;;;7.47;6.80;;;;;;;17.22;59.99;101831.78;6108593;23;20047;-71
2023/05/25 10:30:05;;;;;;;7.38;6.13;;;;;;;17.08;59.36;101777.81;6082216;23;20062;-71
2023/05/25 10:32:33;;;;;;;6.63;6.10;;;;;;;17.47;59.50;101836.41;6111709;23;20032;-72
2023/05/25 10:35:01;;;;;;;6.32;5.63;;;;;;;17.37;56.75;101684.88;6122144;23;20023;-72
2023/05/25 10:37:29;;;;;;;7.00;6.32;;;;;;;17.28;58.71;101778.31;6095824;23;20079;-72
2023/05/25 10:39:57;;;;;;;7.45;6.55;;;;;;;16.84;57.60;101663.53;6113396;23;20021;-72
2023/05/25 10:42:25;;;;;;;7.63;6.57;;;;;;;17.17;57.91;101751.66;6062677;23;20031;-72
2023/05/25 10:44:51;;;;;;;7.47;6.85;;;;;;;17.02;57.77;101727.81;6113300;23;20083;-72
2023/05/25 10:47:19;;;;;;;6.95;6.45;;;;;;;16.45;57.66;101649.13;6091730;23;20018;-72
2023/05/25 10:49:53;;;;;;;7.32;6.72;;;;;;;16.69;59.24;101781.91;6113294;23;20047;-72
2023/05/25 10:52:20;;;;;;;6.63;6.22;;;;;;;16.98;59.81;101807.63;6119736;23;20896;-72
2023/05/25 10:54:47;;;;;;;7.68;7.07;;;;;;;17.13;59.24;101825.25;6088511;23;20038;-71
2023/05/25 10:57:19;;;;;;;7.15;6.50;;;;;;;16.60;59.48;101763.06;6119120;23;20025;-72
2023/05/25 11:00:05;;;;;;;7.03;6.43;;;;;;;16.82;59.29;101784.72;6110589;23;20040;-74
2023/05/25 11:02:50;;;;;;;6.38;5.97;;;;;;;17.09;59.08;101755.63;6119214;23;20086;-74
2023/05/25 11:05:26;;;;;;;6.57;5.97;;;;;;;17.06;59.90;101821.25;6090487;23;20040;-74
2023/05/25 11:07:59;;;;;;;7.05;6.30;;;;;;;17.23;59.15;101836.16;6106838;23;20041;-72
2023/05/25 11:10:47;;;;;;;6.70;6.20;;;;;;;16.04;58.43;101614.59;6088913;23;20022;-72
2023/05/25 11:13:34;;;;;;;6.47;6.00;;;;;;;16.78;59.90;101833.53;6111676;23;20051;-72
2023/05/25 11:16:26;;;;;;;8.40;6.60;;;;;;;16.99;60.20;101879.13;6092413;23;20018;-72
2023/05/25 11:18:58;;;;;;;7.10;6.53;;;;;;;17.02;59.79;101844.50;6111527;23;20091;-69
2023/05/25 11:21:30;;;;;;;6.70;6.20;;;;;;;16.80;61.63;101895.28;6114756;23;20024;-70
2023/05/25 11:24:03;;;;;;;7.22;6.63;;;;;;;16.42;59.96;101784.44;6110830;23;20790;-70
2023/05/25 11:26:32;;;;;;;14.55;7.00;;;;;;;16.42;60.32;101831.28;6094585;23;20017;-70